Time;durP1;ratioP1;P1;durP2;ratioP2;P2;SDS_P1;SDS_P2;PMS_P1;PMS_P2;Temp;Humidity;BMP_temperature;BMP_pressure;BME280_temperature;BME280_humidity;BME280_pressure;Samples;Min_cycle;Max_cycle;Signal;HPM_P1;HPM_P2
2022/08/13 00:01:37;;;;;;;2.17;1.70;;;28.80;30.70;29.80;100870.00;;;;5029148;28;20171;-44
2022/08/13 00:04:06;;;;;;;1.75;1.60;;;28.80;30.70;29.80;100873.00;;;;5028988;28;20167;-45
2022/08/13 00:09:06;;;;;;;1.95;1.67;;;28.70;30.80;29.70;100867.00;;;;5043990;28;20171;-43
2022/08/13 00:14:17;;;;;;;1.83;1.70;;;28.70;31.00;29.70;100868.00;;;;5029165;28;20711;-45
2022/08/13 00:16:43;;;;;;;2.20;1.70;;;28.70;31.10;29.70;100865.00;;;;5028585;28;20190;-44
2022/08/13 00:19:08;;;;;;;1.90;1.70;;;28.70;31.20;29.60;100866.00;;;;5028556;28;20171;-44
2022/08/13 00:21:34;;;;;;;2.22;1.80;;;28.60;31.10;29.60;100875.00;;;;5044070;28;20636;-44
2022/08/13 00:24:00;;;;;;;2.15;1.75;;;28.60;31.20;29.60;100865.00;;;;5028711;28;20575;-44
2022/08/13 00:26:26;;;;;;;2.00;1.88;;;28.60;31.30;29.60;100876.00;;;;5028495;28;20736;-44
2022/08/13 00:28:55;;;;;;;2.75;1.77;;;28.60;31.40;29.60;100865.00;;;;5043314;28;20602;-44
2022/08/13 00:31:22;;;;;;;2.45;1.90;;;28.60;31.40;29.50;100880.00;;;;5028405;28;20252;-44
2022/08/13 00:33:47;;;;;;;2.50;1.80;;;28.50;31.30;29.50;100873.00;;;;5028376;28;20171;-42
2022/08/13 00:36:14;;;;;;;2.42;1.80;;;28.60;31.60;29.50;100870.00;;;;5028297;28;20804;-44
2022/08/13 00:38:44;;;;;;;2.88;1.83;;;28.50;31.50;29.40;100871.00;;;;5028083;28;20167;-43
2022/08/13 00:41:13;;;;;;;2.22;1.70;;;28.50;31.60;29.40;100860.00;;;;5027450;28;20175;-43
2022/08/13 00:43:39;;;;;;;4.15;1.90;;;28.50;31.60;29.40;100860.00;;;;5028583;28;20185;-43
2022/08/13 00:46:05;;;;;;;2.15;1.77;;;28.50;31.70;29.40;100854.00;;;;5028155;28;22033;-43
2022/08/13 00:48:43;;;;;;;2.10;1.92;;;28.50;31.80;29.40;100866.00;;;;5028017;28;20885;-43
2022/08/13 00:51:10;;;;;;;1.90;1.80;;;28.40;31.80;29.40;100855.00;;;;5041984;28;20162;-43
2022/08/13 00:53:39;;;;;;;2.35;1.80;;;28.40;31.90;29.30;100856.00;;;;5027899;28;20808;-42
2022/08/13 00:56:08;;;;;;;2.30;1.90;;;28.40;32.00;29.30;100847.00;;;;5027851;28;20218;-44
2022/08/13 00:58:34;;;;;;;3.47;1.80;;;28.40;32.00;29.30;100859.00;;;;5028005;28;20167;-45
2022/08/13 01:01:00;;;;;;;1.92;1.83;;;28.40;32.00;29.10;100844.00;;;;5028077;28;20205;-43
2022/08/13 01:03:29;;;;;;;1.80;1.70;;;28.40;32.10;29.30;100843.00;;;;5026527;28;20270;-43
2022/08/13 01:05:58;;;;;;;2.00;1.90;;;28.40;32.20;29.30;100850.00;;;;5027671;28;20543;-43
2022/08/13 01:08:24;;;;;;;2.10;1.90;;;28.30;32.10;29.20;100853.00;;;;5042456;28;20206;-45
2022/08/13 01:10:50;;;;;;;2.20;2.00;;;28.30;32.30;29.20;100854.00;;;;5027912;28;20175;-43
2022/08/13 01:13:17;;;;;;;3.45;1.95;;;28.30;32.30;29.20;100847.00;;;;5027830;28;20184;-45
2022/08/13 01:15:44;;;;;;;2.50;1.83;;;28.30;32.40;29.20;100848.00;;;;5042782;28;20198;-43
2022/08/13 01:18:13;;;;;;;2.10;1.88;;;28.20;32.40;29.20;100850.00;;;;5042669;28;20213;-44
2022/08/13 01:20:45;;;;;;;2.33;1.90;;;28.20;32.50;29.20;100849.00;;;;5027493;28;20165;-44
2022/08/13 01:23:11;;;;;;;1.85;1.75;;;28.20;32.60;29.10;100863.00;;;;5027642;28;20171;-43
2022/08/13 01:25:37;;;;;;;2.03;1.90;;;28.20;32.60;29.10;100853.00;;;;5027562;28;20741;-44
2022/08/13 01:28:03;;;;;;;2.17;1.80;;;28.20;32.60;29.10;100858.00;;;;5027268;28;20225;-42
2022/08/13 01:30:29;;;;;;;2.60;1.92;;;28.20;32.60;29.10;100843.00;;;;5027014;28;20186;-44
2022/08/13 01:32:54;;;;;;;3.10;2.05;;;28.20;32.70;29.10;100848.00;;;;5042774;28;20198;-43
2022/08/13 01:35:21;;;;;;;2.47;1.90;;;28.20;32.80;28.80;100853.00;;;;5042394;28;20249;-43
2022/08/13 01:37:53;;;;;;;1.95;1.85;;;28.10;32.80;29.00;100856.00;;;;5026972;28;20179;-43
2022/08/13 01:40:19;;;;;;;2.10;1.83;;;28.10;32.90;29.00;100855.00;;;;5027373;28;20217;-44
2022/08/13 01:42:45;;;;;;;2.28;1.83;;;28.00;33.00;29.00;100851.00;;;;5027264;28;20209;-48
2022/08/13 01:45:12;;;;;;;1.95;1.85;;;28.00;33.00;29.00;100856.00;;;;5027191;28;20187;-42
2022/08/13 01:50:36;;;;;;;4.40;1.90;;;28.00;33.20;28.90;100855.00;;;;4982370;28;20198;-44
2022/08/13 01:53:11;;;;;;;4.65;2.13;;;28.00;33.20;28.90;100847.00;;;;5041379;28;20171;-44
2022/08/13 01:55:39;;;;;;;2.38;2.00;;;28.00;33.30;28.90;100848.00;;;;5026895;28;20195;-44
2022/08/13 01:58:26;;;;;;;3.20;2.00;;;27.90;33.30;28.90;100859.00;;;;5026923;28;20198;-44
2022/08/13 02:00:59;;;;;;;2.20;2.00;;;27.90;33.30;28.80;100857.00;;;;5026639;28;20920;-44
2022/08/13 02:03:25;;;;;;;2.65;2.10;;;27.90;33.30;28.80;100858.00;;;;5026551;28;20753;-44
2022/08/13 02:05:51;;;;;;;2.17;1.98;;;27.90;33.30;28.80;100849.00;;;;5026502;28;20171;-44
2022/08/13 02:08:23;;;;;;;2.25;2.00;;;27.90;33.40;28.70;100858.00;;;;5025177;28;20665;-43
2022/08/13 02:10:52;;;;;;;2.15;2.00;;;27.80;33.30;28.70;100853.00;;;;5026139;28;20198;-44
2022/08/13 02:13:29;;;;;;;2.67;2.00;;;27.90;33.60;28.70;100852.00;;;;5026986;28;20182;-43
2022/08/13 02:15:55;;;;;;;2.30;2.10;;;27.80;34.20;28.70;100851.00;;;;5041451;28;20218;-44
2022/08/13 02:18:23;;;;;;;2.30;2.08;;;27.80;33.60;28.70;100862.00;;;;5026335;28;20250;-44
2022/08/13 02:21:00;;;;;;;2.30;2.20;;;27.80;33.70;28.60;100850.00;;;;5026493;28;20156;-44
2022/08/13 02:23:30;;;;;;;2.30;2.10;;;27.80;33.80;28.60;100857.00;;;;5026637;28;20578;-44
2022/08/13 02:25:57;;;;;;;2.53;2.33;;;27.80;33.80;28.60;100871.00;;;;5026635;28;20171;-43
2022/08/13 02:28:22;;;;;;;2.70;2.10;;;27.70;33.90;28.60;100861.00;;;;5026140;28;20766;-43
2022/08/13 02:30:51;;;;;;;2.65;2.10;;;27.70;33.90;28.60;100864.00;;;;5026208;28;20171;-43
2022/08/13 02:33:17;;;;;;;2.33;2.00;;;27.70;34.00;28.50;100857.00;;;;5026241;28;20262;-43
2022/08/13 02:35:43;;;;;;;2.20;2.00;;;27.70;34.10;28.50;100858.00;;;;5026493;28;20286;-43
2022/08/13 02:38:12;;;;;;;2.40;2.20;;;27.70;34.10;28.50;100864.00;;;;5026149;28;20191;-43
2022/08/13 02:43:25;;;;;;;2.53;2.25;;;27.60;34.20;28.50;100858.00;;;;5026035;28;20254;-43
2022/08/13 02:45:54;;;;;;;2.95;2.20;;;27.50;34.20;28.40;100862.00;;;;5025778;28;20198;-44
2022/08/13 02:48:22;;;;;;;3.20;2.40;;;27.50;34.30;28.40;100848.00;;;;5025793;28;20183;-44
2022/08/13 02:50:48;;;;;;;2.85;2.10;;;27.50;34.30;28.40;100864.00;;;;5026193;28;20309;-43
2022/08/13 02:53:14;;;;;;;2.60;2.40;;;27.50;34.40;28.30;100872.00;;;;5026156;28;20182;-44
2022/08/13 02:55:41;;;;;;;2.25;2.10;;;27.50;34.40;28.30;100794.00;;;;5025962;28;20195;-44
2022/08/13 02:58:07;;;;;;;2.13;1.92;;;27.40;34.50;28.30;100862.00;;;;5025478;28;20207;-43
2022/08/13 03:00:32;;;;;;;2.40;2.20;;;27.40;34.50;28.30;100854.00;;;;5025622;28;20173;-43
2022/08/13 03:02:59;;;;;;;3.70;2.13;;;27.40;34.60;28.20;100862.00;;;;5025337;28;20573;-43
2022/08/13 03:05:30;;;;;;;3.25;2.10;;;27.30;34.60;28.20;100860.00;;;;5026021;28;20225;-43
2022/08/13 03:07:55;;;;;;;3.42;2.20;;;27.30;34.70;28.20;100865.00;;;;5040546;28;20195;-43
2022/08/13 03:10:25;;;;;;;3.75;2.40;;;27.30;34.60;28.20;100860.00;;;;5025196;28;20708;-43
2022/08/13 03:13:04;;;;;;;3.00;2.35;;;27.30;34.70;28.20;100865.00;;;;5040486;28;20522;-43
2022/08/13 03:15:30;;;;;;;2.30;2.10;;;27.30;34.80;28.10;100861.00;;;;5039579;28;20205;-43
2022/08/13 03:17:55;;;;;;;2.40;2.17;;;27.20;34.70;28.10;100861.00;;;;5040763;28;20681;-44
2022/08/13 03:20:21;;;;;;;3.80;2.33;;;27.20;34.80;28.10;100863.00;;;;5025794;28;20598;-43
2022/08/13 03:22:56;;;;;;;2.40;2.20;;;27.20;34.90;28.10;100862.00;;;;5025592;28;20667;-43
2022/08/13 03:25:24;;;;;;;3.92;2.30;;;27.20;34.80;28.10;100867.00;;;;5024426;28;20185;-44
2022/08/13 03:27:50;;;;;;;2.50;2.30;;;27.20;35.00;28.10;100872.00;;;;5025093;28;20653;-43
2022/08/13 03:30:17;;;;;;;2.30;2.10;;;27.20;35.20;28.00;100870.00;;;;5025508;28;20447;-43
2022/08/13 03:32:44;;;;;;;2.30;2.10;;;27.10;35.10;28.00;100870.00;;;;5025713;28;20225;-44
2022/08/13 03:35:23;;;;;;;3.42;2.42;;;27.10;35.10;28.00;100873.00;;;;5025873;28;20207;-43
2022/08/13 03:37:54;;;;;;;10.40;2.30;;;27.10;35.10;28.00;100868.00;;;;5025445;28;20694;-43
2022/08/13 03:40:22;;;;;;;3.42;2.50;;;27.10;35.10;28.00;100860.00;;;;5025464;28;20167;-44
2022/08/13 03:42:48;;;;;;;2.50;2.30;;;27.10;35.20;28.00;100860.00;;;;5025775;28;20540;-44
2022/08/13 03:45:15;;;;;;;2.83;2.50;;;27.10;35.60;27.90;100858.00;;;;5025456;28;20268;-43
2022/08/13 03:47:41;;;;;;;3.25;2.20;;;27.10;35.50;27.90;100866.00;;;;5025146;28;20187;-44
2022/08/13 03:50:08;;;;;;;2.67;2.40;;;27.10;35.50;27.90;100822.00;;;;5025605;28;20183;-45
2022/08/13 03:52:34;;;;;;;3.25;2.40;;;27.00;35.50;27.90;100870.00;;;;5040704;28;20183;-44
2022/08/13 03:55:00;;;;;;;3.20;2.55;;;27.00;35.50;27.80;100864.00;;;;5025258;28;20244;-44
2022/08/13 03:57:26;;;;;;;2.60;2.40;;;26.90;35.50;27.80;100857.00;;;;5024849;28;20259;-44
2022/08/13 03:59:52;;;;;;;2.97;2.20;;;26.90;35.60;27.80;100859.00;;;;5025062;28;20183;-44
2022/08/13 04:02:18;;;;;;;2.60;2.40;;;26.90;35.70;27.80;100860.00;;;;5025112;28;20572;-43
2022/08/13 04:04:46;;;;;;;3.05;2.42;;;26.90;35.70;27.70;100857.00;;;;5043160;28;20167;-42
2022/08/13 04:07:19;;;;;;;3.28;2.50;;;26.80;35.70;27.70;100859.00;;;;5027081;28;20510;-44
2022/08/13 04:09:45;;;;;;;2.70;2.50;;;26.80;35.80;27.70;100852.00;;;;5025493;28;20147;-43
2022/08/13 04:12:12;;;;;;;2.95;2.50;;;26.80;36.40;27.70;100853.00;;;;5023244;28;20409;-43
2022/08/13 04:14:41;;;;;;;2.85;2.65;;;26.80;35.80;27.60;100857.00;;;;5025075;28;20218;-43
2022/08/13 04:17:10;;;;;;;2.60;2.40;;;26.70;35.80;27.60;100871.00;;;;5027838;28;20194;-43
2022/08/13 04:19:42;;;;;;;2.60;2.40;;;26.70;35.90;27.60;100870.00;;;;5028717;28;20167;-44
2022/08/13 04:22:12;;;;;;;3.63;2.75;;;26.70;35.90;27.60;100860.00;;;;5044116;28;20164;-44
2022/08/13 04:24:38;;;;;;;2.90;2.50;;;26.70;35.90;27.50;100867.00;;;;5029129;28;20475;-44
2022/08/13 04:27:04;;;;;;;5.43;2.70;;;26.70;36.00;27.50;100864.00;;;;5026246;28;20296;-43
2022/08/13 04:29:30;;;;;;;3.00;2.53;;;26.60;36.00;27.50;100868.00;;;;5028520;28;20571;-44
2022/08/13 04:31:56;;;;;;;3.28;2.72;;;26.60;36.00;27.50;100868.00;;;;5027994;28;20165;-43
2022/08/13 04:34:25;;;;;;;3.05;2.65;;;26.60;36.00;27.50;100872.00;;;;5027962;28;20171;-44
2022/08/13 04:36:51;;;;;;;2.88;2.60;;;26.60;36.20;27.50;100864.00;;;;5027604;28;20272;-44
2022/08/13 04:39:17;;;;;;;4.18;2.70;;;26.60;36.20;27.40;100872.00;;;;5028010;28;20650;-43
2022/08/13 04:41:43;;;;;;;3.25;2.65;;;26.50;36.10;27.40;100869.00;;;;5027956;28;20270;-43
2022/08/13 04:44:09;;;;;;;3.80;3.05;;;26.60;36.30;27.40;100874.00;;;;5028275;28;20645;-43
2022/08/13 04:46:35;;;;;;;4.63;2.80;;;26.50;36.30;27.40;100868.00;;;;5027221;28;20238;-43
2022/08/13 04:49:00;;;;;;;3.65;2.67;;;26.50;36.40;27.40;100871.00;;;;5027681;28;20199;-43
2022/08/13 04:51:26;;;;;;;3.25;2.75;;;26.50;36.40;27.40;100877.00;;;;5027950;28;20428;-44
2022/08/13 04:53:52;;;;;;;3.70;2.70;;;26.50;36.50;27.40;100878.00;;;;5027782;28;20179;-44
2022/08/13 04:56:18;;;;;;;9.60;2.78;;;26.50;36.50;27.30;100867.00;;;;5027462;28;20207;-44
2022/08/13 04:58:44;;;;;;;6.18;2.55;;;26.50;36.50;27.30;100882.00;;;;5027189;28;20176;-44
2022/08/13 05:01:11;;;;;;;5.38;2.75;;;26.50;36.60;27.30;100877.00;;;;5027843;28;20167;-43
2022/08/13 05:03:39;;;;;;;4.30;2.70;;;26.50;36.70;27.30;100881.00;;;;5027267;28;20190;-43
2022/08/13 05:06:12;;;;;;;2.92;2.60;;;26.50;37.00;27.30;100877.00;;;;5027573;28;20201;-43
2022/08/13 05:08:39;;;;;;;5.00;2.42;;;26.40;37.40;27.30;100885.00;;;;5027273;28;20151;-43
2022/08/13 05:11:06;;;;;;;3.00;2.70;;;26.30;37.60;27.30;100883.00;;;;5027080;28;20772;-43
2022/08/13 05:13:35;;;;;;;5.15;2.70;;;26.30;37.90;27.30;100890.00;;;;5027569;28;20206;-43
2022/08/13 05:16:03;;;;;;;2.50;2.30;;;26.30;37.90;27.30;100892.00;;;;5026994;28;20325;-43
2022/08/13 05:18:31;;;;;;;3.55;2.50;;;26.30;38.00;27.30;100897.00;;;;5026541;28;20765;-43
2022/08/13 05:21:00;;;;;;;4.13;2.50;;;26.30;37.90;27.30;100904.00;;;;5027778;28;20178;-43
2022/08/13 05:23:26;;;;;;;2.95;2.50;;;26.30;38.00;27.30;100901.00;;;;5027118;28;20199;-43
2022/08/13 05:25:52;;;;;;;2.88;2.60;;;26.40;38.00;27.30;100901.00;;;;5026494;28;20212;-44
2022/08/13 05:28:18;;;;;;;3.17;2.50;;;26.50;38.20;27.30;100908.00;;;;5026722;28;20179;-43
2022/08/13 05:30:47;;;;;;;2.60;2.40;;;26.50;38.20;27.30;100897.00;;;;5026737;28;20499;-43
2022/08/13 05:33:16;;;;;;;3.95;2.55;;;26.50;38.20;27.30;100906.00;;;;5027288;28;20221;-44
2022/08/13 05:35:47;;;;;;;2.63;2.42;;;26.50;38.20;27.30;100899.00;;;;5046185;28;20206;-44
2022/08/13 05:38:14;;;;;;;2.75;2.50;;;26.60;38.50;27.30;100904.00;;;;5032040;28;20148;-44
2022/08/13 05:40:40;;;;;;;3.42;2.42;;;26.60;38.60;27.30;100905.00;;;;5036681;28;20182;-44
2022/08/13 05:43:14;;;;;;;3.05;2.50;;;26.60;38.70;27.30;100893.00;;;;5027820;28;20182;-44
2022/08/13 05:45:41;;;;;;;3.30;2.63;;;26.60;39.00;27.40;100905.00;;;;5041647;28;20198;-42
2022/08/13 05:48:08;;;;;;;3.15;2.60;;;26.60;39.00;27.40;100904.00;;;;5026657;28;20389;-43
2022/08/13 05:50:35;;;;;;;3.40;3.10;;;26.60;39.00;27.40;100909.00;;;;5026652;28;20258;-43
2022/08/13 05:53:09;;;;;;;3.33;3.03;;;26.60;39.00;27.40;100912.00;;;;5026409;28;20171;-43
2022/08/13 05:55:37;;;;;;;4.07;2.92;;;26.60;39.00;27.40;100909.00;;;;5026630;28;20190;-43
2022/08/13 05:58:04;;;;;;;3.33;2.50;;;26.70;38.90;27.40;100889.00;;;;5041483;28;20616;-43
2022/08/13 06:03:27;;;;;;;2.95;2.60;;;26.60;38.80;27.40;100916.00;;;;5026565;28;20463;-44
2022/08/13 06:06:02;;;;;;;2.97;2.75;;;26.60;38.90;27.40;100909.00;;;;5026303;28;20174;-44
2022/08/13 06:08:35;;;;;;;3.22;2.70;;;26.70;39.20;27.40;100916.00;;;;5027956;28;20503;-44
2022/08/13 06:11:08;;;;;;;3.60;2.90;;;26.60;39.10;27.40;100908.00;;;;5028766;28;20250;-44
2022/08/13 06:13:36;;;;;;;3.72;2.60;;;26.60;39.00;27.40;100915.00;;;;5026447;28;20255;-44
2022/08/13 06:16:03;;;;;;;3.72;2.70;;;26.50;38.80;27.40;100852.00;;;;5041132;28;20214;-44
2022/08/13 06:18:35;;;;;;;3.33;2.50;;;26.50;38.90;27.30;100918.00;;;;5024982;28;20323;-44
2022/08/13 06:21:04;;;;;;;2.70;2.50;;;26.50;38.80;27.30;100911.00;;;;5026681;28;20163;-44
2022/08/13 06:23:32;;;;;;;3.42;2.30;;;26.60;38.70;27.30;100924.00;;;;5026493;28;20813;-44
2022/08/13 06:25:58;;;;;;;2.70;2.50;;;26.60;38.60;27.40;100923.00;;;;5025435;28;20171;-44
2022/08/13 06:28:27;;;;;;;3.88;2.50;;;26.60;38.60;27.40;100925.00;;;;5025538;28;20737;-42
2022/08/13 06:31:01;;;;;;;3.95;2.60;;;26.60;38.70;27.40;100925.00;;;;5026049;28;20183;-43
2022/08/13 06:33:28;;;;;;;2.75;2.42;;;26.60;38.90;27.40;100925.00;;;;5025946;28;20167;-43
2022/08/13 06:36:02;;;;;;;2.97;2.60;;;26.70;39.10;27.40;100918.00;;;;5025976;28;20605;-43
2022/08/13 06:38:29;;;;;;;2.80;2.60;;;26.60;39.00;27.40;100928.00;;;;5025560;28;20186;-43
2022/08/13 06:40:59;;;;;;;3.30;2.60;;;26.60;38.90;27.40;100926.00;;;;5025517;28;20181;-43
2022/08/13 06:43:27;;;;;;;3.00;2.53;;;26.70;38.90;27.40;100924.00;;;;5025711;28;20894;-44
2022/08/13 06:45:55;;;;;;;2.50;2.30;;;26.70;39.00;27.40;100928.00;;;;5040491;28;20780;-44
2022/08/13 06:48:24;;;;;;;2.42;2.22;;;26.70;38.80;27.40;100922.00;;;;5040899;28;20182;-44
2022/08/13 06:50:50;;;;;;;2.58;2.38;;;26.70;38.80;27.40;100935.00;;;;5025883;28;20181;-44
2022/08/13 06:53:16;;;;;;;3.58;2.60;;;26.70;38.80;27.40;100940.00;;;;5026019;28;20209;-44
2022/08/13 06:55:42;;;;;;;3.25;2.40;;;26.70;38.90;27.40;100929.00;;;;5025420;28;20634;-44
2022/08/13 06:58:09;;;;;;;3.28;2.78;;;26.70;39.60;27.40;100926.00;;;;5040477;28;20198;-44
2022/08/13 07:00:38;;;;;;;2.70;2.50;;;26.70;40.50;27.40;100924.00;;;;5025670;28;20163;-44
2022/08/13 07:03:07;;;;;;;2.30;2.10;;;26.70;39.60;27.40;100933.00;;;;5025531;28;20822;-44
2022/08/13 07:05:41;;;;;;;2.88;2.30;;;26.70;39.40;27.40;100935.00;;;;5041178;28;20266;-44
2022/08/13 07:08:08;;;;;;;3.55;2.50;;;26.70;39.30;27.40;100932.00;;;;5040406;28;20712;-44
2022/08/13 07:10:35;;;;;;;2.50;2.30;;;26.80;39.40;27.40;100933.00;;;;5025133;28;20225;-43
2022/08/13 07:13:02;;;;;;;2.50;2.30;;;26.80;39.40;27.40;100927.00;;;;5025591;28;20182;-43
2022/08/13 07:15:28;;;;;;;3.45;2.50;;;26.80;39.60;27.40;100928.00;;;;5025678;28;20202;-44
2022/08/13 07:17:55;;;;;;;3.25;2.38;;;26.70;39.60;27.40;100922.00;;;;5025307;28;20202;-44
2022/08/13 07:20:22;;;;;;;2.72;2.50;;;26.80;39.70;27.40;100926.00;;;;5025617;28;20202;-44
2022/08/13 07:22:48;;;;;;;2.50;2.30;;;26.70;39.60;27.40;100925.00;;;;5023175;28;20181;-43
2022/08/13 07:25:14;;;;;;;2.47;2.28;;;26.70;40.20;27.40;100930.00;;;;5039362;28;20179;-43
2022/08/13 07:27:41;;;;;;;4.25;2.35;;;26.80;39.80;27.40;100929.00;;;;5023130;28;20283;-42
2022/08/13 07:30:08;;;;;;;2.65;2.13;;;26.70;39.60;27.40;100922.00;;;;5025377;28;20203;-43
2022/08/13 07:32:39;;;;;;;3.65;2.40;;;26.70;39.60;27.40;100926.00;;;;5025085;28;20264;-42
2022/08/13 07:35:08;;;;;;;3.95;2.30;;;26.70;39.60;27.40;100919.00;;;;5025618;28;20556;-44
2022/08/13 07:37:35;;;;;;;5.40;2.30;;;26.80;39.60;27.40;100930.00;;;;4962649;28;20210;-44
2022/08/13 07:40:02;;;;;;;4.18;2.22;;;26.80;39.40;27.40;100923.00;;;;5039805;28;20171;-44
2022/08/13 07:42:28;;;;;;;3.50;2.25;;;26.80;39.60;27.30;100926.00;;;;5037866;28;20263;-44
2022/08/13 07:44:54;;;;;;;2.20;2.05;;;26.80;39.50;27.30;100934.00;;;;5019245;28;20578;-44
2022/08/13 07:47:22;;;;;;;2.47;2.28;;;26.80;39.30;27.30;100930.00;;;;5005076;28;20183;-44
2022/08/13 07:49:48;;;;;;;2.47;2.28;;;26.80;39.10;27.30;100931.00;;;;5006902;28;20186;-44
2022/08/13 07:52:14;;;;;;;2.30;2.10;;;26.80;39.10;27.30;100931.00;;;;5007944;28;20195;-44
2022/08/13 07:54:42;;;;;;;2.28;2.00;;;26.80;39.10;27.30;100931.00;;;;5008746;28;20218;-44
2022/08/13 07:57:09;;;;;;;2.10;2.00;;;26.80;39.10;27.30;100929.00;;;;5024144;28;20199;-44
2022/08/13 07:59:36;;;;;;;3.13;1.98;;;26.80;39.00;27.30;100927.00;;;;5025637;28;20746;-43
2022/08/13 08:02:02;;;;;;;2.30;2.10;;;26.80;39.00;27.30;100929.00;;;;5028848;28;20167;-44
2022/08/13 08:04:30;;;;;;;2.45;2.25;;;26.80;39.10;27.30;100926.00;;;;5028672;28;20316;-44
2022/08/13 08:06:56;;;;;;;3.63;2.15;;;26.80;39.00;27.30;100934.00;;;;5027012;28;20191;-44
2022/08/13 08:09:25;;;;;;;2.30;2.10;;;26.80;38.90;27.30;100927.00;;;;5027140;28;20225;-43
2022/08/13 08:14:37;;;;;;;2.40;2.20;;;26.80;39.00;27.30;100929.00;;;;5032329;28;20154;-42
2022/08/13 08:17:05;;;;;;;2.75;2.20;;;26.70;38.90;27.30;100931.00;;;;5028772;28;20234;-43
2022/08/13 08:19:31;;;;;;;3.42;2.08;;;26.80;38.90;27.30;100936.00;;;;5028468;28;20278;-44
2022/08/13 08:22:01;;;;;;;2.55;2.00;;;26.80;38.70;27.30;100936.00;;;;5028304;28;20546;-42
2022/08/13 08:24:32;;;;;;;2.30;2.10;;;26.80;38.70;27.30;100924.00;;;;5027205;28;20689;-44
2022/08/13 08:27:02;;;;;;;2.05;1.95;;;26.80;38.90;27.30;100930.00;;;;5028369;28;20222;-44
2022/08/13 08:29:28;;;;;;;2.50;2.30;;;26.80;39.00;27.40;100932.00;;;;5027263;28;20182;-44
2022/08/13 08:31:54;;;;;;;2.67;2.30;;;26.90;38.90;27.40;100931.00;;;;5017803;28;20175;-44
2022/08/13 08:34:20;;;;;;;2.97;2.30;;;26.90;38.70;27.40;100926.00;;;;5009233;28;20174;-44
2022/08/13 08:36:46;;;;;;;2.50;2.30;;;26.90;38.80;27.40;100941.00;;;;4960534;28;20253;-44
2022/08/13 08:44:43;;;;;;;2.30;2.10;;;26.90;38.60;27.40;100915.00;;;;5028114;28;20617;-43
2022/08/13 08:47:09;;;;;;;2.88;2.17;;;27.00;38.70;27.40;100920.00;;;;5027524;28;20205;-51
2022/08/13 08:49:36;;;;;;;2.40;2.20;;;27.00;38.80;27.50;100919.00;;;;5028212;28;20300;-43
2022/08/13 08:52:02;;;;;;;2.33;2.05;;;27.00;38.70;27.50;100925.00;;;;5027439;28;20175;-43
2022/08/13 08:54:29;;;;;;;2.35;2.10;;;27.00;38.40;27.50;100915.00;;;;5026359;28;20185;-43
2022/08/13 08:56:56;;;;;;;2.80;2.00;;;27.10;38.50;27.50;100919.00;;;;5026349;28;20344;-44
2022/08/13 08:59:35;;;;;;;1.90;1.80;;;27.10;38.30;27.50;100912.00;;;;5028274;28;20175;-44
2022/08/13 09:02:01;;;;;;;2.97;2.00;;;27.10;38.10;27.50;100912.00;;;;5026402;28;20177;-43
2022/08/13 09:04:28;;;;;;;2.33;2.13;;;27.10;38.00;27.50;100916.00;;;;5028212;28;20175;-49
2022/08/13 09:06:58;;;;;;;2.10;2.00;;;27.10;37.90;27.50;100916.00;;;;5028169;28;20293;-44
2022/08/13 09:09:25;;;;;;;2.10;2.00;;;27.20;37.80;27.60;100916.00;;;;5027193;28;20175;-44
2022/08/13 09:11:55;;;;;;;2.20;2.00;;;27.20;37.80;27.60;100907.00;;;;5027175;28;20184;-44
2022/08/13 09:14:30;;;;;;;2.30;2.10;;;27.20;37.80;27.60;100902.00;;;;5026761;28;20675;-44
2022/08/13 09:17:00;;;;;;;3.13;2.05;;;27.20;38.30;27.60;100902.00;;;;5027047;28;20322;-44
2022/08/13 09:19:27;;;;;;;2.95;2.20;;;27.20;38.10;27.60;100893.00;;;;5027174;28;20250;-44
2022/08/13 09:21:52;;;;;;;2.17;2.00;;;27.20;38.10;27.60;100886.00;;;;5027292;28;20175;-44
2022/08/13 09:24:24;;;;;;;2.40;2.20;;;27.20;37.60;27.70;100883.00;;;;5027147;28;20175;-44
2022/08/13 09:26:51;;;;;;;2.35;2.00;;;27.20;37.80;27.70;100895.00;;;;5026827;28;20199;-44
2022/08/13 09:29:19;;;;;;;2.20;2.00;;;27.30;37.60;27.70;100894.00;;;;5027617;28;20804;-44
2022/08/13 09:31:48;;;;;;;2.70;2.30;;;27.30;37.90;27.70;100885.00;;;;5018416;28;20570;-44
2022/08/13 09:34:14;;;;;;;2.20;2.10;;;27.20;38.00;27.70;100900.00;;;;5007287;28;20251;-44
2022/08/13 09:36:40;;;;;;;2.10;2.00;;;27.30;37.60;27.80;100893.00;;;;4916548;28;20333;-43
2022/08/13 09:39:06;;;;;;;2.28;2.15;;;27.30;37.10;27.80;100879.00;;;;5006779;28;20251;-43
2022/08/13 09:41:42;;;;;;;3.60;2.15;;;27.40;37.10;27.80;100882.00;;;;5006818;28;20255;-44
2022/08/13 09:44:08;;;;;;;2.53;1.90;;;27.40;37.10;27.80;100874.00;;;;5006194;28;20159;-43
2022/08/13 09:46:35;;;;;;;2.50;2.30;;;27.40;37.70;27.80;100881.00;;;;5006937;28;20709;-43
2022/08/13 09:49:03;;;;;;;3.85;2.30;;;27.50;37.30;27.90;100877.00;;;;5007106;28;20176;-44
2022/08/13 09:51:35;;;;;;;2.70;2.10;;;27.50;36.90;27.90;100877.00;;;;5006870;28;20266;-43
2022/08/13 09:54:05;;;;;;;2.28;1.92;;;27.50;36.90;27.80;100868.00;;;;5007069;28;20179;-44
2022/08/13 09:56:36;;;;;;;2.50;2.30;;;27.50;36.80;27.90;100866.00;;;;5005386;28;20298;-43
2022/08/13 09:59:02;;;;;;;2.65;2.00;;;27.60;36.70;28.00;100866.00;;;;5006803;28;20184;-42
2022/08/13 10:01:28;;;;;;;2.47;2.28;;;27.70;36.80;28.00;100867.00;;;;5006594;28;20195;-44
2022/08/13 10:03:53;;;;;;;2.30;2.10;;;27.60;37.00;28.00;100863.00;;;;5006631;28;20171;-43
2022/08/13 10:06:19;;;;;;;2.50;2.30;;;27.60;36.90;28.00;100852.00;;;;5005973;28;20250;-42
2022/08/13 10:08:46;;;;;;;2.47;2.08;;;27.60;36.70;28.00;100854.00;;;;5006468;28;20168;-44
2022/08/13 10:11:15;;;;;;;2.80;2.28;;;27.70;36.70;28.00;100857.00;;;;5006713;28;20211;-43
2022/08/13 10:13:42;;;;;;;2.40;2.20;;;27.70;36.90;28.10;100830.00;;;;5005815;28;20168;-43
2022/08/13 10:16:07;;;;;;;2.45;2.20;;;27.70;37.20;28.10;100835.00;;;;5006620;28;20624;-43
2022/08/13 10:18:33;;;;;;;3.03;2.20;;;27.70;37.20;28.10;100839.00;;;;5006041;28;20176;-44
2022/08/13 10:20:59;;;;;;;3.33;2.30;;;27.70;37.10;28.10;100831.00;;;;5006204;28;20163;-43
2022/08/13 10:23:24;;;;;;;2.30;2.10;;;27.80;37.60;28.10;100826.00;;;;5006390;28;20199;-43
2022/08/13 10:25:52;;;;;;;3.72;2.00;;;27.80;37.70;28.20;100823.00;;;;5005995;28;20258;-44
2022/08/13 10:28:27;;;;;;;2.20;2.10;;;27.90;37.40;28.20;100827.00;;;;5005817;28;20251;-43
2022/08/13 10:30:54;;;;;;;4.32;2.10;;;27.80;38.00;28.20;100830.00;;;;5007043;28;20297;-43
2022/08/13 10:33:20;;;;;;;3.65;2.10;;;27.80;38.40;28.20;100817.00;;;;5024770;28;20175;-42
2022/08/13 10:35:52;;;;;;;2.20;2.00;;;27.80;38.60;28.30;100806.00;;;;5026101;28;20203;-44
2022/08/13 10:38:19;;;;;;;2.45;2.10;;;27.80;38.80;28.30;100816.00;;;;4944493;28;20248;-42
2022/08/13 10:40:44;;;;;;;2.63;2.00;;;27.80;38.90;28.30;100804.00;;;;5026111;28;20159;-43
2022/08/13 10:43:10;;;;;;;3.13;2.10;;;27.80;38.80;28.30;100815.00;;;;5025421;28;20175;-43
2022/08/13 10:45:36;;;;;;;2.78;2.10;;;27.80;39.00;28.30;100816.00;;;;5020875;28;20303;-44
2022/08/13 10:48:13;;;;;;;3.35;2.10;;;27.80;39.20;28.40;100802.00;;;;5006482;28;20206;-42
2022/08/13 10:50:39;;;;;;;2.60;2.17;;;27.90;39.30;28.40;100807.00;;;;5005354;28;20210;-43
2022/08/13 10:53:05;;;;;;;2.60;2.10;;;27.90;39.40;28.40;100805.00;;;;5007102;28;20175;-43
2022/08/13 10:55:31;;;;;;;2.10;2.00;;;27.90;39.40;28.40;100808.00;;;;5006552;28;20198;-43
2022/08/13 10:57:58;;;;;;;2.20;2.00;;;27.90;39.50;28.40;100804.00;;;;5006136;28;20791;-43
2022/08/13 11:00:24;;;;;;;4.35;2.00;;;28.00;39.70;28.50;100802.00;;;;5006579;28;20546;-43
2022/08/13 11:02:50;;;;;;;2.70;1.88;;;28.00;39.90;28.50;100805.00;;;;5007013;28;20163;-43
2022/08/13 11:05:20;;;;;;;3.83;2.10;;;28.00;39.90;28.50;100806.00;;;;5006816;28;20270;-43
2022/08/13 11:07:47;;;;;;;2.50;2.30;;;28.00;40.80;28.50;100806.00;;;;5006794;28;20206;-43
2022/08/13 11:10:13;;;;;;;3.28;2.00;;;28.10;41.80;28.50;100806.00;;;;5005509;28;20190;-42
2022/08/13 11:12:42;;;;;;;3.47;1.90;;;28.10;41.40;28.50;100804.00;;;;5020836;28;20176;-41